Time;durP1;ratioP1;P1;durP2;ratioP2;P2;SDS_P1;SDS_P2;PMS_P1;PMS_P2;Temp;Humidity;BMP_temperature;BMP_pressure;BME280_temperature;BME280_humidity;BME280_pressure;Samples;Min_cycle;Max_cycle;Signal;HPM_P1;HPM_P2
2021/05/21 00:02:07;;;;;;;;;;;;;;;13.60;84.24;98409.53;5036428;28;20023;-62
2021/05/21 00:04:32;;;;;;;;;;;;;;;13.64;83.59;98398.09;5036877;28;20366;-62
2021/05/21 00:06:58;;;;;;;;;;;;;;;13.77;84.29;98401.66;5039040;28;19917;-63
2021/05/21 00:09:23;;;;;;;;;;;;;;;13.77;85.60;98396.50;5037743;28;19913;-63
2021/05/21 00:11:48;;;;;;;;;;;;;;;13.54;85.18;98392.56;5035030;28;20385;-62
2021/05/21 00:14:14;;;;;;;;;;;;;;;13.35;85.17;98379.78;5038637;28;19996;-62
2021/05/21 00:16:39;;;;;;;;;;;;;;;13.25;86.12;98373.44;5036495;28;19932;-63
2021/05/21 00:19:23;;;;;;;;;;;;;;;13.29;86.74;98368.94;5034055;28;20293;-62
2021/05/21 00:21:48;;;;;;;;;;;;;;;13.36;86.66;98365.09;5038409;28;19925;-62
2021/05/21 00:24:14;;;;;;;;;;;;;;;13.37;87.30;98362.44;5036422;28;19913;-63
2021/05/21 00:26:39;;;;;;;;;;;;;;;13.21;87.94;98353.81;5038365;28;19917;-62
2021/05/21 00:29:06;;;;;;;;;;;;;;;13.31;87.01;98349.84;5044161;28;20231;-62
2021/05/21 00:31:31;;;;;;;;;;;;;;;13.36;87.94;98347.88;5055911;28;19958;-62
2021/05/21 00:33:57;;;;;;;;;;;;;;;13.16;88.87;98337.72;5057836;28;20439;-62
2021/05/21 00:36:44;;;;;;;;;;;;;;;13.28;87.90;98325.91;5058671;28;19919;-62
2021/05/21 00:39:09;;;;;;;;;;;;;;;13.21;88.43;98327.97;5035826;28;20504;-62
2021/05/21 00:42:09;;;;;;;;;;;;;;;13.08;88.90;98320.00;5056573;28;20016;-62
2021/05/21 00:44:34;;;;;;;;;;;;;;;13.00;89.98;98316.16;5053867;28;19920;-62
2021/05/21 00:47:00;;;;;;;;;;;;;;;13.10;89.65;98309.59;5055198;28;19913;-62
2021/05/21 00:49:25;;;;;;;;;;;;;;;13.01;89.55;98310.09;5054291;28;19913;-62
2021/05/21 00:51:50;;;;;;;;;;;;;;;13.02;89.61;98304.00;5020628;28;19924;-62
2021/05/21 00:54:16;;;;;;;;;;;;;;;13.06;90.99;98290.00;5053738;28;20007;-62
2021/05/21 00:56:45;;;;;;;;;;;;;;;12.92;90.27;98291.56;5055230;28;19917;-62
2021/05/21 00:59:26;;;;;;;;;;;;;;;12.84;90.44;98285.97;5050979;28;19929;-62
2021/05/21 01:02:01;;;;;;;;;;;;;;;13.10;90.79;98288.91;5031730;28;20328;-62
2021/05/21 01:04:36;;;;;;;;;;;;;;;12.81;91.45;98275.78;5036408;28;19913;-62
2021/05/21 01:07:02;;;;;;;;;;;;;;;12.98;91.07;98287.81;5057862;28;19913;-62
2021/05/21 01:09:28;;;;;;;;;;;;;;;12.94;91.48;98276.81;5034958;28;19920;-62
2021/05/21 01:14:56;;;;;;;;;;;;;;;12.74;92.81;98264.09;5056633;28;19919;-62
2021/05/21 01:17:22;;;;;;;;;;;;;;;12.77;92.56;98261.34;5055016;28;20209;-62
2021/05/21 01:19:47;;;;;;;;;;;;;;;12.78;93.19;98260.44;5054970;28;20381;-62
2021/05/21 01:22:13;;;;;;;;;;;;;;;12.80;93.00;98250.03;5034384;28;20332;-62
2021/05/21 01:24:38;;;;;;;;;;;;;;;12.75;93.62;98247.69;5056956;28;19920;-62
2021/05/21 01:27:04;;;;;;;;;;;;;;;12.82;93.89;98238.72;5059266;28;20138;-62
2021/05/21 01:29:30;;;;;;;;;;;;;;;12.80;93.67;98235.38;5056204;28;20007;-62
2021/05/21 01:31:55;;;;;;;;;;;;;;;12.85;93.31;98235.13;5054177;28;20059;-62
2021/05/21 01:34:21;;;;;;;;;;;;;;;12.76;93.86;98231.28;5055336;28;19971;-62
2021/05/21 01:36:47;;;;;;;;;;;;;;;12.93;92.82;98232.94;5037285;28;19924;-62
2021/05/21 01:39:13;;;;;;;;;;;;;;;12.93;92.89;98238.09;5051561;28;20392;-62
2021/05/21 01:41:38;;;;;;;;;;;;;;;12.90;93.82;98233.13;5056110;28;19916;-62
2021/05/21 01:44:05;;;;;;;;;;;;;;;12.79;94.49;98230.28;5044315;28;19922;-62
2021/05/21 01:46:30;;;;;;;;;;;;;;;12.63;95.44;98214.75;5053390;28;19964;-62
2021/05/21 01:49:02;;;;;;;;;;;;;;;12.68;95.34;98211.03;5057564;28;19944;-62
2021/05/21 01:51:27;;;;;;;;;;;;;;;12.65;95.69;98210.34;5035868;28;19940;-62
2021/05/21 01:54:08;;;;;;;;;;;;;;;12.66;96.80;98204.28;5052757;28;20292;-62
2021/05/21 01:56:33;;;;;;;;;;;;;;;12.64;97.03;98196.59;5054780;28;19924;-62
2021/05/21 01:58:58;;;;;;;;;;;;;;;12.64;97.21;98196.59;5055423;28;19916;-62
2021/05/21 02:01:24;;;;;;;;;;;;;;;12.89;95.40;98190.94;5057523;28;20013;-62
2021/05/21 02:03:49;;;;;;;;;;;;;;;12.85;95.18;98184.28;5033030;28;19955;-62
2021/05/21 02:06:14;;;;;;;;;;;;;;;12.65;97.09;98185.34;5056213;28;19923;-62
2021/05/21 02:08:40;;;;;;;;;;;;;;;12.80;95.76;98175.94;5056988;28;19939;-62
2021/05/21 02:11:05;;;;;;;;;;;;;;;12.78;95.88;98182.94;5057444;28;19912;-62
2021/05/21 02:13:30;;;;;;;;;;;;;;;12.84;95.63;98174.88;5052357;28;19912;-62
2021/05/21 02:15:56;;;;;;;;;;;;;;;12.77;96.77;98168.34;5057750;28;19912;-62
2021/05/21 02:18:21;;;;;;;;;;;;;;;12.66;97.36;98173.28;5053178;28;20263;-62
2021/05/21 02:20:46;;;;;;;;;;;;;;;12.81;96.90;98167.25;5051931;28;19996;-62
2021/05/21 02:26:24;;;;;;;;;;;;;;;12.76;97.43;98164.09;5054561;28;20513;-62
2021/05/21 02:28:49;;;;;;;;;;;;;;;12.74;98.30;98160.75;5054811;28;19954;-63
2021/05/21 02:31:15;;;;;;;;;;;;;;;12.78;98.62;98144.19;5053173;28;19928;-63
2021/05/21 02:33:42;;;;;;;;;;;;;;;12.76;98.64;98148.59;5036971;28;20373;-63
2021/05/21 02:36:07;;;;;;;;;;;;;;;12.65;99.13;98143.19;5056265;28;19918;-63
2021/05/21 02:38:32;;;;;;;;;;;;;;;12.81;97.63;98123.34;5057365;28;19917;-63
2021/05/21 02:40:58;;;;;;;;;;;;;;;12.67;98.31;98125.84;5053770;28;19913;-63
2021/05/21 02:43:23;;;;;;;;;;;;;;;12.65;99.37;98131.09;5059102;28;19913;-63
2021/05/21 02:45:48;;;;;;;;;;;;;;;12.55;100.00;98123.00;5051830;28;19912;-63
2021/05/21 02:48:14;;;;;;;;;;;;;;;12.67;99.74;98124.09;5057674;28;20119;-62
2021/05/21 02:50:42;;;;;;;;;;;;;;;12.76;98.39;98127.94;5037358;28;19944;-62
2021/05/21 02:53:07;;;;;;;;;;;;;;;12.61;99.36;98121.84;5055658;28;20320;-63
2021/05/21 02:55:33;;;;;;;;;;;;;;;12.64;97.77;98118.28;5037451;28;19912;-63
2021/05/21 02:57:58;;;;;;;;;;;;;;;12.65;99.56;98104.44;5059248;28;19960;-63
2021/05/21 03:00:24;;;;;;;;;;;;;;;12.47;99.27;98104.50;5055568;28;19970;-63
2021/05/21 03:02:49;;;;;;;;;;;;;;;12.45;100.00;98106.38;5056304;28;19923;-62
2021/05/21 03:05:17;;;;;;;;;;;;;;;12.49;98.92;98110.44;5058669;28;19935;-62
2021/05/21 03:07:43;;;;;;;;;;;;;;;12.46;100.00;98115.75;5034921;28;19913;-63
2021/05/21 03:10:08;;;;;;;;;;;;;;;12.45;100.00;98111.53;5033813;28;19913;-63
2021/05/21 03:12:34;;;;;;;;;;;;;;;12.60;99.75;98103.84;5057918;28;19959;-63
2021/05/21 03:14:59;;;;;;;;;;;;;;;12.63;99.78;98101.09;5035593;28;19958;-63
2021/05/21 03:17:25;;;;;;;;;;;;;;;12.61;98.87;98093.41;5051556;28;19927;-63
2021/05/21 03:19:50;;;;;;;;;;;;;;;12.54;98.84;98099.84;5053249;28;19917;-63
2021/05/21 03:22:15;;;;;;;;;;;;;;;12.33;100.00;98097.50;5033395;28;20435;-63
2021/05/21 03:24:40;;;;;;;;;;;;;;;12.37;99.66;98097.34;5053225;28;19916;-63
2021/05/21 03:27:06;;;;;;;;;;;;;;;12.37;98.60;98090.44;5051832;28;19952;-63
2021/05/21 03:29:31;;;;;;;;;;;;;;;12.36;99.78;98078.44;5028234;28;19921;-63
2021/05/21 03:31:56;;;;;;;;;;;;;;;12.47;99.59;98086.44;5008717;28;20418;-63
2021/05/21 03:34:22;;;;;;;;;;;;;;;12.48;99.48;98082.13;5023519;28;19925;-63
2021/05/21 03:36:47;;;;;;;;;;;;;;;12.37;99.38;98090.44;5026466;28;20192;-63
2021/05/21 03:39:14;;;;;;;;;;;;;;;12.63;99.02;98081.25;5029299;28;19975;-63
2021/05/21 03:41:39;;;;;;;;;;;;;;;12.64;96.72;98082.94;5015395;28;19917;-63
2021/05/21 03:44:05;;;;;;;;;;;;;;;12.51;99.47;98072.44;5024411;28;19944;-63
2021/05/21 03:46:31;;;;;;;;;;;;;;;12.29;99.09;98071.94;5011631;28;20433;-62
2021/05/21 03:48:56;;;;;;;;;;;;;;;12.31;99.98;98072.69;5029750;28;19961;-63
2021/05/21 03:51:21;;;;;;;;;;;;;;;12.37;100.00;98063.78;5029765;28;19913;-62
2021/05/21 03:53:47;;;;;;;;;;;;;;;12.42;100.00;98061.78;5024564;28;19962;-62
2021/05/21 03:56:12;;;;;;;;;;;;;;;12.16;100.00;98060.59;5030331;28;19975;-63
2021/05/21 03:58:38;;;;;;;;;;;;;;;12.38;99.73;98055.13;5027089;28;20294;-63
2021/05/21 04:01:03;;;;;;;;;;;;;;;12.37;100.00;98053.47;5010624;28;19913;-62
2021/05/21 04:03:29;;;;;;;;;;;;;;;12.46;98.83;98048.63;5026293;28;19913;-63
2021/05/21 04:05:54;;;;;;;;;;;;;;;12.16;100.00;98051.13;5024826;28;19921;-63
2021/05/21 04:08:19;;;;;;;;;;;;;;;12.39;100.00;98051.63;5014548;28;19939;-63
2021/05/21 04:10:45;;;;;;;;;;;;;;;12.59;98.40;98047.94;5026659;28;19921;-63
2021/05/21 04:13:10;;;;;;;;;;;;;;;12.63;98.54;98044.28;5029010;28;19917;-63
2021/05/21 04:15:38;;;;;;;;;;;;;;;12.58;99.86;98046.28;5025969;28;20353;-62
2021/05/21 04:18:03;;;;;;;;;;;;;;;12.60;99.14;98039.28;5013265;28;19921;-63
2021/05/21 04:20:28;;;;;;;;;;;;;;;12.68;98.72;98037.09;5027973;28;20316;-63
2021/05/21 04:22:54;;;;;;;;;;;;;;;12.66;100.00;98036.38;5026196;28;19985;-63
2021/05/21 04:25:19;;;;;;;;;;;;;;;12.54;99.49;98038.72;5028143;28;19924;-63
2021/05/21 04:27:44;;;;;;;;;;;;;;;12.68;99.17;98034.50;5026957;28;19921;-63
2021/05/21 04:30:10;;;;;;;;;;;;;;;12.69;99.40;98024.09;5027288;28;20028;-61
2021/05/21 04:32:35;;;;;;;;;;;;;;;12.45;99.94;98016.00;5025690;28;19940;-63
2021/05/21 04:35:01;;;;;;;;;;;;;;;12.43;100.00;98010.06;5030285;28;20444;-63
2021/05/21 04:37:26;;;;;;;;;;;;;;;12.66;99.69;98010.53;5031272;28;19921;-63
2021/05/21 04:39:52;;;;;;;;;;;;;;;12.80;98.84;98008.00;5030846;28;20482;-63
2021/05/21 04:42:18;;;;;;;;;;;;;;;12.79;99.40;98010.66;5030768;28;19913;-63
2021/05/21 04:48:03;;;;;;;;;;;;;;;13.05;99.91;98014.34;4988396;28;20012;-63
2021/05/21 04:50:41;;;;;;;;;;;;;;;13.06;97.34;98013.41;5016165;28;20420;-63
2021/05/21 04:53:06;;;;;;;;;;;;;;;13.16;98.39;98011.97;5039114;28;19912;-62
2021/05/21 04:55:32;;;;;;;;;;;;;;;13.22;97.28;98005.59;5033010;28;19935;-63
2021/05/21 04:57:57;;;;;;;;;;;;;;;13.26;98.61;98001.91;5012717;28;19924;-65
2021/05/21 05:00:22;;;;;;;;;;;;;;;13.14;98.63;98003.47;5012570;28;19913;-63
2021/05/21 05:02:48;;;;;;;;;;;;;;;13.34;99.04;98005.75;5032674;28;19924;-63
2021/05/21 05:08:15;;;;;;;;;;;;;;;13.57;96.04;97998.34;5027128;28;20432;-63
2021/05/21 05:10:41;;;;;;;;;;;;;;;13.37;97.78;97995.22;5036151;28;20247;-63
2021/05/21 05:13:07;;;;;;;;;;;;;;;13.36;98.28;97998.75;5038614;28;19946;-63
2021/05/21 05:15:33;;;;;;;;;;;;;;;13.16;99.23;97993.88;5030699;28;19968;-63
2021/05/21 05:17:59;;;;;;;;;;;;;;;13.80;97.93;97997.81;5027274;28;20272;-63
2021/05/21 05:20:34;;;;;;;;;;;;;;;13.48;96.85;97983.38;5031445;28;19965;-63
2021/05/21 05:22:59;;;;;;;;;;;;;;;13.42;97.00;97987.19;5034065;28;20457;-63
2021/05/21 05:25:24;;;;;;;;;;;;;;;13.58;96.52;97979.34;5037645;28;20020;-63
2021/05/21 05:27:50;;;;;;;;;;;;;;;13.83;97.71;97973.50;5037031;28;20385;-63
2021/05/21 05:30:16;;;;;;;;;;;;;;;13.52;100.00;97966.75;5044796;28;19921;-63
2021/05/21 05:32:41;;;;;;;;;;;;;;;13.54;100.00;97970.09;5055568;28;19912;-63
2021/05/21 05:35:06;;;;;;;;;;;;;;;13.43;97.09;97973.31;5063168;28;20003;-63
2021/05/21 05:37:32;;;;;;;;;;;;;;;14.03;94.12;97961.91;5033274;28;20011;-63
2021/05/21 05:39:57;;;;;;;;;;;;;;;13.95;93.56;97958.94;5052551;28;19917;-63
2021/05/21 05:42:22;;;;;;;;;;;;;;;13.87;96.38;97961.19;5054032;28;19956;-63
2021/05/21 05:44:48;;;;;;;;;;;;;;;13.35;95.92;97960.84;5060202;28;19912;-63
2021/05/21 05:47:14;;;;;;;;;;;;;;;14.13;94.50;97951.78;5033747;28;19912;-64
2021/05/21 05:49:40;;;;;;;;;;;;;;;13.90;94.25;97948.06;5037516;28;20309;-63
2021/05/21 05:52:05;;;;;;;;;;;;;;;14.13;94.84;97951.78;5057590;28;19916;-63
2021/05/21 05:54:31;;;;;;;;;;;;;;;14.30;93.43;97945.53;5040015;28;20341;-64
2021/05/21 05:56:56;;;;;;;;;;;;;;;14.99;89.70;97933.28;5054809;28;20394;-63
2021/05/21 05:59:24;;;;;;;;;;;;;;;14.18;91.31;97934.19;5036999;28;19912;-63
2021/05/21 06:01:50;;;;;;;;;;;;;;;14.33;95.67;97927.22;5057543;28;19913;-63
2021/05/21 06:04:15;;;;;;;;;;;;;;;14.93;91.73;97931.09;5065977;28;20373;-63
2021/05/21 06:06:40;;;;;;;;;;;;;;;14.58;91.85;97931.66;5052765;28;19995;-63
2021/05/21 06:09:08;;;;;;;;;;;;;;;15.24;91.45;97927.25;5054520;28;20039;-63
2021/05/21 06:11:34;;;;;;;;;;;;;;;15.29;86.61;97929.53;5056768;28;20340;-63
2021/05/21 06:13:59;;;;;;;;;;;;;;;15.96;85.75;97926.63;5057739;28;19916;-63
2021/05/21 06:16:24;;;;;;;;;;;;;;;15.77;84.03;97917.53;5033818;28;19972;-63
2021/05/21 06:18:50;;;;;;;;;;;;;;;15.02;86.54;97920.09;5053927;28;19916;-63
2021/05/21 06:21:15;;;;;;;;;;;;;;;15.30;89.92;97919.03;5055970;28;20365;-63
2021/05/21 06:23:43;;;;;;;;;;;;;;;15.08;89.21;97924.06;5053677;28;19959;-63
2021/05/21 06:28:43;;;;;;;;;;;;;;;14.80;91.06;97907.75;5059678;28;19913;-63
2021/05/21 06:31:09;;;;;;;;;;;;;;;14.97;88.87;97901.44;5057220;28;20007;-63
2021/05/21 06:33:34;;;;;;;;;;;;;;;15.59;87.51;97904.06;5037117;28;20296;-63
2021/05/21 06:36:00;;;;;;;;;;;;;;;15.28;88.78;97897.59;5060174;28;20363;-63
2021/05/21 06:38:25;;;;;;;;;;;;;;;15.72;86.32;97904.06;5059019;28;20019;-63
2021/05/21 06:40:50;;;;;;;;;;;;;;;16.22;82.95;97898.78;5054474;28;19936;-63
2021/05/21 06:43:18;;;;;;;;;;;;;;;16.12;84.62;97903.81;5035148;28;19913;-63
2021/05/21 06:45:44;;;;;;;;;;;;;;;15.46;86.53;97904.09;5038748;28;19913;-63
2021/05/21 06:48:09;;;;;;;;;;;;;;;15.55;88.59;97906.97;5037914;28;20266;-63
2021/05/21 06:50:34;;;;;;;;;;;;;;;15.84;86.41;97898.00;5057796;28;19917;-63
2021/05/21 06:53:00;;;;;;;;;;;;;;;16.22;84.73;97906.59;5036522;28;19913;-63
2021/05/21 06:55:25;;;;;;;;;;;;;;;16.66;80.16;97902.47;5051889;28;19920;-63
2021/05/21 06:57:51;;;;;;;;;;;;;;;16.88;81.32;97904.34;5057911;28;20011;-62
2021/05/21 07:00:16;;;;;;;;;;;;;;;16.31;75.51;97905.91;5050894;28;20059;-62
2021/05/21 07:02:42;;;;;;;;;;;;;;;16.16;82.36;97887.06;5037467;28;20007;-62
2021/05/21 07:05:07;;;;;;;;;;;;;;;16.47;74.30;97887.44;5055117;28;20361;-62
2021/05/21 07:07:33;;;;;;;;;;;;;;;16.66;79.60;97889.47;5050545;28;20259;-63
2021/05/21 07:09:59;;;;;;;;;;;;;;;15.59;84.03;97887.66;5050330;28;19913;-63
2021/05/21 07:12:25;;;;;;;;;;;;;;;16.34;80.94;97882.28;5054104;28;19922;-62
2021/05/21 07:14:50;;;;;;;;;;;;;;;16.01;84.04;97889.00;5053301;28;19913;-62
2021/05/21 07:17:15;;;;;;;;;;;;;;;16.68;75.33;97895.41;5055710;28;19923;-62
2021/05/21 07:19:41;;;;;;;;;;;;;;;16.28;81.12;97896.56;5051007;28;19917;-63
2021/05/21 07:22:06;;;;;;;;;;;;;;;16.10;80.48;97893.53;5050219;28;20007;-63
2021/05/21 07:24:31;;;;;;;;;;;;;;;16.27;83.67;97892.31;5055791;28;20424;-62
2021/05/21 07:26:57;;;;;;;;;;;;;;;15.79;82.77;97884.53;5054407;28;20325;-62
2021/05/21 07:29:22;;;;;;;;;;;;;;;16.48;77.04;97881.28;5050690;28;19999;-62
2021/05/21 07:31:47;;;;;;;;;;;;;;;17.01;73.44;97884.22;5052085;28;19913;-63
2021/05/21 07:34:13;;;;;;;;;;;;;;;16.05;75.83;97881.81;5040256;28;20038;-63
2021/05/21 07:36:38;;;;;;;;;;;;;;;16.54;82.65;97885.22;5057384;28;20003;-63
2021/05/21 07:39:04;;;;;;;;;;;;;;;15.25;80.75;97885.63;5038507;28;19991;-62
2021/05/21 07:41:29;;;;;;;;;;;;;;;15.44;82.51;97885.22;5053801;28;19928;-62
2021/05/21 07:43:55;;;;;;;;;;;;;;;15.69;83.93;97873.94;5050817;28;19917;-63
2021/05/21 07:46:23;;;;;;;;;;;;;;;16.03;81.85;97881.09;5031577;28;19940;-63
2021/05/21 07:48:49;;;;;;;;;;;;;;;16.36;76.23;97887.38;5051472;28;19913;-62
2021/05/21 07:51:15;;;;;;;;;;;;;;;16.55;75.52;97877.28;5058358;28;19932;-62
2021/05/21 07:53:40;;;;;;;;;;;;;;;16.14;78.44;97886.34;5049339;28;19924;-63
2021/05/21 07:56:06;;;;;;;;;;;;;;;15.84;79.17;97866.84;5032535;28;19977;-63
2021/05/21 07:58:31;;;;;;;;;;;;;;;15.60;79.74;97873.75;5053168;28;19987;-62
2021/05/21 08:00:57;;;;;;;;;;;;;;;16.33;77.07;97869.41;5055118;28;20058;-62
2021/05/21 08:03:22;;;;;;;;;;;;;;;17.04;73.29;97865.81;5056245;28;20301;-63
2021/05/21 08:05:48;;;;;;;;;;;;;;;16.12;71.89;97867.44;5037054;28;19920;-62
2021/05/21 08:08:15;;;;;;;;;;;;;;;16.39;71.99;97863.75;5055545;28;19944;-63
2021/05/21 08:10:40;;;;;;;;;;;;;;;16.26;74.76;97869.88;5054336;28;19917;-62
2021/05/21 08:13:05;;;;;;;;;;;;;;;16.93;74.62;97855.41;5052495;28;20396;-63
2021/05/21 08:15:31;;;;;;;;;;;;;;;16.38;74.46;97856.94;5052710;28;20003;-62
2021/05/21 08:17:56;;;;;;;;;;;;;;;16.46;67.70;97851.97;5034799;28;19924;-63
2021/05/21 08:20:21;;;;;;;;;;;;;;;17.51;73.40;97850.88;5017513;28;19938;-62
2021/05/21 08:22:50;;;;;;;;;;;;;;;16.52;68.42;97846.31;5053094;28;19917;-63
2021/05/21 08:25:15;;;;;;;;;;;;;;;17.88;70.68;97840.19;5040438;28;19920;-63
2021/05/21 08:27:41;;;;;;;;;;;;;;;17.29;67.94;97840.50;5054220;28;19919;-63
2021/05/21 08:30:07;;;;;;;;;;;;;;;16.83;67.20;97847.47;5056436;28;19921;-62
2021/05/21 08:32:32;;;;;;;;;;;;;;;16.86;69.52;97854.22;5034164;28;19995;-63
2021/05/21 08:34:57;;;;;;;;;;;;;;;17.36;64.30;97836.47;5058022;28;19923;-62
2021/05/21 08:37:23;;;;;;;;;;;;;;;16.98;66.98;97847.25;5053990;28;19924;-63
2021/05/21 08:39:48;;;;;;;;;;;;;;;17.68;69.41;97840.91;5059391;28;20374;-63
2021/05/21 08:42:15;;;;;;;;;;;;;;;18.11;62.60;97833.09;5034279;28;20390;-62
2021/05/21 08:44:45;;;;;;;;;;;;;;;17.16;63.84;97840.63;5023577;28;20300;-62
2021/05/21 08:47:10;;;;;;;;;;;;;;;16.12;65.49;97838.03;5054066;28;19917;-62
2021/05/21 08:49:36;;;;;;;;;;;;;;;16.17;65.93;97841.97;5058791;28;19958;-63
2021/05/21 08:52:03;;;;;;;;;;;;;;;15.67;65.98;97843.84;5054577;28;19920;-63
2021/05/21 08:54:34;;;;;;;;;;;;;;;16.52;64.03;97835.94;5055183;28;19963;-63
2021/05/21 08:57:04;;;;;;;;;;;;;;;15.99;67.23;97840.72;5037720;28;19953;-63
2021/05/21 08:59:29;;;;;;;;;;;;;;;16.94;65.05;97838.84;5056454;28;19913;-63
2021/05/21 09:01:56;;;;;;;;;;;;;;;17.36;62.34;97831.28;5054510;28;19980;-63
2021/05/21 09:04:22;;;;;;;;;;;;;;;18.37;60.48;97838.75;5023804;28;19921;-63
2021/05/21 09:06:47;;;;;;;;;;;;;;;18.04;62.22;97844.13;5056405;28;19924;-63
2021/05/21 09:09:13;;;;;;;;;;;;;;;18.63;60.83;97827.94;5057623;28;19912;-63
2021/05/21 09:11:41;;;;;;;;;;;;;;;19.16;60.49;97838.28;5036688;28;20392;-65
2021/05/21 09:14:18;;;;;;;;;;;;;;;18.56;55.93;97832.84;5034566;28;19923;-63
2021/05/21 09:16:43;;;;;;;;;;;;;;;17.12;60.80;97832.22;5055102;28;20292;-63
2021/05/21 09:19:14;;;;;;;;;;;;;;;17.58;56.80;97813.94;5054033;28;19913;-63
2021/05/21 09:21:59;;;;;;;;;;;;;;;18.79;55.25;97836.19;5038110;28;19919;-63
2021/05/21 09:24:26;;;;;;;;;;;;;;;18.71;58.64;97835.97;5052747;28;20067;-63
2021/05/21 09:26:52;;;;;;;;;;;;;;;18.53;54.83;97838.31;5056824;28;19913;-63
2021/05/21 09:29:31;;;;;;;;;;;;;;;18.29;57.15;97838.59;5037686;28;19928;-63
2021/05/21 09:31:56;;;;;;;;;;;;;;;17.59;64.64;97833.84;5034749;28;19919;-63
2021/05/21 09:34:32;;;;;;;;;;;;;;;18.46;55.60;97834.56;5049750;28;19913;-63
2021/05/21 09:36:58;;;;;;;;;;;;;;;17.90;59.99;97827.00;5031599;28;19935;-63
2021/05/21 09:39:23;;;;;;;;;;;;;;;20.25;59.62;97833.09;5016492;28;19917;-63
2021/05/21 09:41:50;;;;;;;;;;;;;;;19.75;52.84;97835.81;5051358;28;19912;-63
2021/05/21 09:44:16;;;;;;;;;;;;;;;18.99;54.74;97838.88;5047916;28;20020;-63
2021/05/21 09:46:48;;;;;;;;;;;;;;;19.76;55.37;97832.25;5037127;28;19975;-63
2021/05/21 09:49:26;;;;;;;;;;;;;;;18.10;58.03;97841.84;5053044;28;20651;-63
2021/05/21 09:51:52;;;;;;;;;;;;;;;16.35;59.90;97854.53;5048089;28;19917;-63
2021/05/21 09:54:17;;;;;;;;;;;;;;;15.86;71.31;97849.38;5051895;28;20373;-63
2021/05/21 09:56:44;;;;;;;;;;;;;;;15.79;69.75;97858.56;5058193;28;19916;-65
2021/05/21 09:59:10;;;;;;;;;;;;;;;15.56;69.17;97854.16;5036008;28;20370;-62
2021/05/21 10:01:37;;;;;;;;;;;;;;;15.08;73.84;97865.25;5038474;28;19920;-62
2021/05/21 10:04:06;;;;;;;;;;;;;;;15.60;67.56;97863.34;5056452;28;19920;-63
2021/05/21 10:06:32;;;;;;;;;;;;;;;16.61;73.36;97871.63;5053981;28;19996;-63
2021/05/21 10:08:59;;;;;;;;;;;;;;;18.30;67.71;97866.28;5057929;28;20019;-62
2021/05/21 10:11:24;;;;;;;;;;;;;;;17.35;61.58;97866.84;5035613;28;19916;-62
2021/05/21 10:13:50;;;;;;;;;;;;;;;17.28;61.88;97864.84;5035328;28;19981;-62
2021/05/21 10:16:16;;;;;;;;;;;;;;;17.62;55.89;97868.25;5036472;28;19917;-62
2021/05/21 10:18:47;;;;;;;;;;;;;;;17.80;56.24;97865.16;5056264;28;19943;-62
2021/05/21 10:21:13;;;;;;;;;;;;;;;18.76;52.81;97854.66;5054633;28;20294;-63
2021/05/21 10:23:40;;;;;;;;;;;;;;;17.33;57.44;97854.91;5056995;28;19935;-62
2021/05/21 10:26:08;;;;;;;;;;;;;;;19.07;49.76;97851.25;5018399;28;19921;-62
2021/05/21 10:28:33;;;;;;;;;;;;;;;18.50;49.52;97874.28;5033370;28;20448;-63
2021/05/21 10:31:02;;;;;;;;;;;;;;;18.92;49.22;97858.63;5034747;28;20011;-63
2021/05/21 10:33:32;;;;;;;;;;;;;;;16.88;56.38;97865.34;5037027;28;19963;-55
2021/05/21 10:36:23;;;;;;;;;;;;;;;17.93;51.80;97876.28;5055130;28;19996;-55
2021/05/21 10:39:02;;;;;;;;;;;;;;;16.98;52.52;97868.06;5044226;28;19975;-63
2021/05/21 10:41:27;;;;;;;;;;;;;;;18.95;54.61;97868.78;5034922;28;19918;-63
2021/05/21 10:43:54;;;;;;;;;;;;;;;19.09;53.99;97870.22;5033092;28;19925;-63
2021/05/21 10:46:21;;;;;;;;;;;;;;;18.33;44.34;97878.25;5052709;28;20031;-63
2021/05/21 10:48:56;;;;;;;;;;;;;;;18.34;47.02;97892.94;5032120;28;19917;-62
2021/05/21 10:51:22;;;;;;;;;;;;;;;18.24;49.10;97863.34;5037301;28;19919;-63
2021/05/21 10:53:48;;;;;;;;;;;;;;;17.97;45.64;97891.53;5056103;28;19913;-63
2021/05/21 10:56:14;;;;;;;;;;;;;;;17.70;45.85;97885.88;5054528;28;19916;-63
2021/05/21 10:58:48;;;;;;;;;;;;;;;17.14;52.46;97892.75;5053001;28;19984;-63
2021/05/21 11:01:15;;;;;;;;;;;;;;;17.27;54.07;97889.25;5036819;28;20213;-63
2021/05/21 11:03:58;;;;;;;;;;;;;;;17.95;54.77;97888.22;5055141;28;19912;-63
2021/05/21 11:06:24;;;;;;;;;;;;;;;16.07;51.01;97891.16;5052807;28;19920;-63
2021/05/21 11:08:49;;;;;;;;;;;;;;;17.01;51.36;97884.22;5052908;28;19913;-63
2021/05/21 11:11:15;;;;;;;;;;;;;;;17.52;50.19;97878.56;5035189;28;19963;-63
2021/05/21 11:13:40;;;;;;;;;;;;;;;17.97;51.30;97867.25;5053059;28;20371;-63
2021/05/21 11:16:11;;;;;;;;;;;;;;;17.35;46.29;97860.81;5050862;28;20000;-62
2021/05/21 11:18:42;;;;;;;;;;;;;;;18.50;46.29;97869.88;5052552;28;19986;-63
2021/05/21 11:21:08;;;;;;;;;;;;;;;18.43;43.88;97858.31;5034455;28;20028;-62
2021/05/21 11:23:38;;;;;;;;;;;;;;;18.55;43.54;97849.44;5033697;28;20011;-63
2021/05/21 11:26:05;;;;;;;;;;;;;;;17.73;45.03;97857.81;5052865;28;19996;-62
2021/05/21 11:28:33;;;;;;;;;;;;;;;19.68;43.82;97845.13;5054810;28;20043;-62
2021/05/21 11:30:59;;;;;;;;;;;;;;;19.13;52.47;97859.38;5053202;28;19974;-63
2021/05/21 11:33:24;;;;;;;;;;;;;;;19.10;43.29;97854.44;5037965;28;19928;-62
2021/05/21 11:35:53;;;;;;;;;;;;;;;18.97;41.07;97843.38;5037679;28;19916;-62
2021/05/21 11:38:23;;;;;;;;;;;;;;;19.68;43.83;97845.94;5053606;28;20040;-63
2021/05/21 11:40:48;;;;;;;;;;;;;;;18.90;40.63;97847.47;5050817;28;20429;-62
2021/05/21 11:43:13;;;;;;;;;;;;;;;20.17;42.75;97841.63;5032377;28;20007;-62
2021/05/21 11:45:39;;;;;;;;;;;;;;;19.33;39.32;97836.81;5019932;28;20007;-63
2021/05/21 11:48:09;;;;;;;;;;;;;;;18.17;40.60;97848.22;5035280;28;20317;-62
2021/05/21 11:50:34;;;;;;;;;;;;;;;18.69;42.88;97852.69;5051699;28;19917;-63
2021/05/21 11:53:12;;;;;;;;;;;;;;;18.98;47.12;97842.44;5036548;28;19917;-62
2021/05/21 11:55:43;;;;;;;;;;;;;;;18.23;46.25;97840.88;5052394;28;19958;-63
2021/05/21 11:58:30;;;;;;;;;;;;;;;17.70;44.26;97850.25;5039800;28;19960;-62
2021/05/21 12:00:59;;;;;;;;;;;;;;;17.82;44.02;97850.25;5060985;28;20366;-62
2021/05/21 12:03:24;;;;;;;;;;;;;;;16.90;46.47;97840.88;5057410;28;19917;-62
2021/05/21 12:05:49;;;;;;;;;;;;;;;17.43;51.05;97840.25;5060756;28;19923;-62
2021/05/21 12:08:15;;;;;;;;;;;;;;;16.35;45.87;97844.16;5057482;28;19946;-62
2021/05/21 12:10:41;;;;;;;;;;;;;;;16.00;46.83;97845.78;5051555;28;19927;-62
2021/05/21 12:13:07;;;;;;;;;;;;;;;17.03;44.97;97845.13;5054806;28;20035;-63
2021/05/21 12:15:33;;;;;;;;;;;;;;;16.48;45.22;97855.28;5056518;28;19912;-62
2021/05/21 12:17:58;;;;;;;;;;;;;;;16.67;46.01;97837.38;5055691;28;19917;-62
2021/05/21 12:20:24;;;;;;;;;;;;;;;17.20;45.71;97833.41;5053388;28;19947;-62
2021/05/21 12:23:02;;;;;;;;;;;;;;;16.56;48.05;97837.38;5057047;28;19963;-62
2021/05/21 12:25:28;;;;;;;;;;;;;;;17.52;50.99;97823.09;5057471;28;19916;-62
2021/05/21 12:27:54;;;;;;;;;;;;;;;17.67;51.64;97823.63;5054477;28;19966;-63
2021/05/21 12:30:19;;;;;;;;;;;;;;;17.79;51.92;97827.88;5052829;28;20278;-63
2021/05/21 12:32:45;;;;;;;;;;;;;;;18.34;43.08;97822.56;5035439;28;20011;-63
2021/05/21 12:35:10;;;;;;;;;;;;;;;17.02;41.52;97828.69;5054228;28;20253;-63
2021/05/21 12:37:43;;;;;;;;;;;;;;;18.28;45.87;97825.69;5053919;28;19924;-63
2021/05/21 12:40:10;;;;;;;;;;;;;;;17.63;48.60;97828.25;5054907;28;20325;-67
2021/05/21 12:42:35;;;;;;;;;;;;;;;18.86;45.50;97822.59;5033393;28;20012;-63
2021/05/21 12:45:01;;;;;;;;;;;;;;;19.93;44.66;97831.56;5037959;28;20400;-63
2021/05/21 12:47:26;;;;;;;;;;;;;;;19.70;49.70;97817.94;5034814;28;19921;-63
2021/05/21 12:49:51;;;;;;;;;;;;;;;18.27;39.86;97822.25;5055136;28;19917;-63
2021/05/21 12:52:17;;;;;;;;;;;;;;;19.43;47.07;97805.50;5037139;28;19920;-63
2021/05/21 12:54:43;;;;;;;;;;;;;;;18.93;42.76;97826.34;5021499;28;19971;-63
2021/05/21 12:57:18;;;;;;;;;;;;;;;18.62;38.87;97836.72;5053519;28;19920;-63
2021/05/21 12:59:48;;;;;;;;;;;;;;;18.02;39.92;97828.66;5055531;28;19924;-63